sensor_id;sensor_type;location;lat;lon;timestamp;P1;durP1;ratioP1;P2;durP2;ratioP2
42886;SDS011;29032;56.028;92.904;2023-03-26T00:01:34;6.70;;;3.40;;
42886;SDS011;29032;56.028;92.904;2023-03-26T00:06:37;9.80;;;5.27;;
42886;SDS011;29032;56.028;92.904;2023-03-26T00:12:00;13.30;;;5.53;;
42886;SDS011;29032;56.028;92.904;2023-03-26T00:17:22;7.30;;;4.10;;
42886;SDS011;29032;56.028;92.904;2023-03-26T00:22:24;9.53;;;4.90;;
42886;SDS011;29032;56.028;92.904;2023-03-26T00:27:28;7.13;;;4.73;;
42886;SDS011;29032;56.028;92.904;2023-03-26T00:32:49;8.20;;;4.30;;
42886;SDS011;29032;56.028;92.904;2023-03-26T00:37:51;8.10;;;3.93;;
42886;SDS011;29032;56.028;92.904;2023-03-26T00:43:14;5.90;;;3.80;;
42886;SDS011;29032;56.028;92.904;2023-03-26T00:48:35;7.17;;;4.97;;
42886;SDS011;29032;56.028;92.904;2023-03-26T00:53:57;6.57;;;3.67;;
42886;SDS011;29032;56.028;92.904;2023-03-26T00:59:00;7.00;;;3.20;;
42886;SDS011;29032;56.028;92.904;2023-03-26T01:04:20;5.50;;;3.30;;
42886;SDS011;29032;56.028;92.904;2023-03-26T01:09:27;7.53;;;3.40;;
42886;SDS011;29032;56.028;92.904;2023-03-26T01:14:56;5.27;;;3.40;;
42886;SDS011;29032;56.028;92.904;2023-03-26T01:20:21;4.63;;;3.13;;
42886;SDS011;29032;56.028;92.904;2023-03-26T01:25:47;6.33;;;2.97;;
42886;SDS011;29032;56.028;92.904;2023-03-26T01:31:14;4.60;;;3.70;;
42886;SDS011;29032;56.028;92.904;2023-03-26T01:36:27;9.53;;;4.13;;
42886;SDS011;29032;56.028;92.904;2023-03-26T01:41:53;5.80;;;3.73;;
42886;SDS011;29032;56.028;92.904;2023-03-26T01:52:20;9.27;;;3.73;;
42886;SDS011;29032;56.028;92.904;2023-03-26T01:57:47;6.43;;;2.80;;
42886;SDS011;29032;56.028;92.904;2023-03-26T02:03:18;4.63;;;2.90;;
42886;SDS011;29032;56.028;92.904;2023-03-26T02:08:26;6.50;;;2.93;;
42886;SDS011;29032;56.028;92.904;2023-03-26T02:13:35;5.33;;;2.80;;
42886;SDS011;29032;56.028;92.904;2023-03-26T02:18:56;8.53;;;3.60;;
42886;SDS011;29032;56.028;92.904;2023-03-26T02:24:18;7.93;;;3.00;;
42886;SDS011;29032;56.028;92.904;2023-03-26T02:29:41;6.83;;;3.07;;
42886;SDS011;29032;56.028;92.904;2023-03-26T02:34:45;5.77;;;3.10;;
42886;SDS011;29032;56.028;92.904;2023-03-26T02:39:47;6.77;;;2.47;;
42886;SDS011;29032;56.028;92.904;2023-03-26T02:45:01;5.03;;;2.77;;
42886;SDS011;29032;56.028;92.904;2023-03-26T02:50:29;2.87;;;2.27;;
42886;SDS011;29032;56.028;92.904;2023-03-26T02:55:50;3.47;;;2.37;;
42886;SDS011;29032;56.028;92.904;2023-03-26T03:01:13;4.53;;;2.40;;
42886;SDS011;29032;56.028;92.904;2023-03-26T03:06:23;3.13;;;1.87;;
42886;SDS011;29032;56.028;92.904;2023-03-26T03:11:29;4.53;;;2.50;;
42886;SDS011;29032;56.028;92.904;2023-03-26T03:16:52;3.00;;;1.70;;
42886;SDS011;29032;56.028;92.904;2023-03-26T03:22:13;4.30;;;2.30;;
42886;SDS011;29032;56.028;92.904;2023-03-26T03:27:16;4.47;;;2.13;;
42886;SDS011;29032;56.028;92.904;2023-03-26T03:32:38;5.17;;;2.50;;
42886;SDS011;29032;56.028;92.904;2023-03-26T03:37:40;3.60;;;2.40;;
42886;SDS011;29032;56.028;92.904;2023-03-26T03:42:43;5.37;;;2.57;;
42886;SDS011;29032;56.028;92.904;2023-03-26T03:48:06;4.93;;;2.40;;
42886;SDS011;29032;56.028;92.904;2023-03-26T03:53:18;5.30;;;2.50;;
42886;SDS011;29032;56.028;92.904;2023-03-26T03:58:25;3.17;;;2.47;;
42886;SDS011;29032;56.028;92.904;2023-03-26T04:03:47;3.10;;;1.90;;
42886;SDS011;29032;56.028;92.904;2023-03-26T04:09:09;4.07;;;2.07;;
42886;SDS011;29032;56.028;92.904;2023-03-26T04:14:13;5.77;;;2.60;;
42886;SDS011;29032;56.028;92.904;2023-03-26T04:19:36;6.03;;;2.63;;
42886;SDS011;29032;56.028;92.904;2023-03-26T04:24:42;2.93;;;2.00;;
42886;SDS011;29032;56.028;92.904;2023-03-26T04:29:50;4.77;;;1.97;;
42886;SDS011;29032;56.028;92.904;2023-03-26T04:35:13;4.80;;;2.00;;
42886;SDS011;29032;56.028;92.904;2023-03-26T04:40:35;8.47;;;3.27;;
42886;SDS011;29032;56.028;92.904;2023-03-26T04:46:04;5.13;;;2.60;;
42886;SDS011;29032;56.028;92.904;2023-03-26T04:51:14;6.60;;;2.60;;
42886;SDS011;29032;56.028;92.904;2023-03-26T04:56:20;3.83;;;2.80;;
42886;SDS011;29032;56.028;92.904;2023-03-26T05:01:53;4.87;;;2.77;;
42886;SDS011;29032;56.028;92.904;2023-03-26T05:06:59;4.30;;;2.90;;
42886;SDS011;29032;56.028;92.904;2023-03-26T05:12:20;4.67;;;2.70;;
42886;SDS011;29032;56.028;92.904;2023-03-26T05:17:33;4.67;;;2.80;;
42886;SDS011;29032;56.028;92.904;2023-03-26T05:22:38;3.23;;;2.30;;
42886;SDS011;29032;56.028;92.904;2023-03-26T05:27:59;5.87;;;3.30;;
42886;SDS011;29032;56.028;92.904;2023-03-26T05:50:35;3.50;;;2.70;;
42886;SDS011;29032;56.028;92.904;2023-03-26T05:55:37;8.27;;;3.33;;
42886;SDS011;29032;56.028;92.904;2023-03-26T06:01:19;8.80;;;3.40;;
42886;SDS011;29032;56.028;92.904;2023-03-26T06:06:39;7.63;;;3.20;;
42886;SDS011;29032;56.028;92.904;2023-03-26T06:11:42;9.70;;;3.93;;
42886;SDS011;29032;56.028;92.904;2023-03-26T06:17:05;5.43;;;3.30;;
42886;SDS011;29032;56.028;92.904;2023-03-26T06:22:27;8.30;;;3.93;;
42886;SDS011;29032;56.028;92.904;2023-03-26T06:27:48;3.83;;;3.30;;
42886;SDS011;29032;56.028;92.904;2023-03-26T06:33:18;10.97;;;3.93;;
42886;SDS011;29032;56.028;92.904;2023-03-26T06:38:24;5.27;;;3.67;;
42886;SDS011;29032;56.028;92.904;2023-03-26T06:43:26;4.70;;;3.30;;
42886;SDS011;29032;56.028;92.904;2023-03-26T06:48:49;5.10;;;3.50;;
42886;SDS011;29032;56.028;92.904;2023-03-26T06:54:02;6.67;;;4.40;;
42886;SDS011;29032;56.028;92.904;2023-03-26T06:59:39;6.80;;;4.27;;
42886;SDS011;29032;56.028;92.904;2023-03-26T07:05:09;3.58;;;2.90;;
42886;SDS011;29032;56.028;92.904;2023-03-26T07:10:30;6.40;;;3.13;;
42886;SDS011;29032;56.028;92.904;2023-03-26T07:15:52;6.73;;;3.17;;
42886;SDS011;29032;56.028;92.904;2023-03-26T07:21:15;6.37;;;2.93;;
42886;SDS011;29032;56.028;92.904;2023-03-26T07:26:22;6.43;;;3.60;;
42886;SDS011;29032;56.028;92.904;2023-03-26T07:31:53;5.63;;;3.07;;
42886;SDS011;29032;56.028;92.904;2023-03-26T07:37:25;5.07;;;3.40;;
42886;SDS011;29032;56.028;92.904;2023-03-26T07:43:06;5.90;;;3.43;;
42886;SDS011;29032;56.028;92.904;2023-03-26T07:48:42;4.43;;;3.20;;
42886;SDS011;29032;56.028;92.904;2023-03-26T07:54:07;5.40;;;3.20;;
42886;SDS011;29032;56.028;92.904;2023-03-26T07:59:33;4.70;;;2.93;;
42886;SDS011;29032;56.028;92.904;2023-03-26T08:05:00;7.33;;;3.07;;
42886;SDS011;29032;56.028;92.904;2023-03-26T08:10:32;9.43;;;4.23;;
42886;SDS011;29032;56.028;92.904;2023-03-26T08:15:43;7.57;;;3.10;;
42886;SDS011;29032;56.028;92.904;2023-03-26T08:20:50;6.17;;;3.17;;
42886;SDS011;29032;56.028;92.904;2023-03-26T08:25:59;7.85;;;4.55;;
42886;SDS011;29032;56.028;92.904;2023-03-26T08:31:06;6.83;;;3.60;;
42886;SDS011;29032;56.028;92.904;2023-03-26T08:36:11;8.33;;;3.07;;
42886;SDS011;29032;56.028;92.904;2023-03-26T08:47:35;7.93;;;3.20;;
42886;SDS011;29032;56.028;92.904;2023-03-26T08:59:19;6.80;;;3.50;;
42886;SDS011;29032;56.028;92.904;2023-03-26T09:16:25;8.27;;;3.40;;
42886;SDS011;29032;56.028;92.904;2023-03-26T09:22:07;7.50;;;3.20;;
42886;SDS011;29032;56.028;92.904;2023-03-26T09:27:39;4.03;;;2.93;;
42886;SDS011;29032;56.028;92.904;2023-03-26T09:33:18;6.83;;;3.67;;
42886;SDS011;29032;56.028;92.904;2023-03-26T09:38:51;7.37;;;4.20;;
42886;SDS011;29032;56.028;92.904;2023-03-26T09:50:34;6.70;;;3.43;;
42886;SDS011;29032;56.028;92.904;2023-03-26T09:56:01;5.50;;;3.70;;
42886;SDS011;29032;56.028;92.904;2023-03-26T10:01:15;6.17;;;3.43;;
42886;SDS011;29032;56.028;92.904;2023-03-26T10:06:48;6.80;;;3.50;;
42886;SDS011;29032;56.028;92.904;2023-03-26T10:12:24;4.73;;;3.00;;
42886;SDS011;29032;56.028;92.904;2023-03-26T10:17:58;5.63;;;3.27;;
42886;SDS011;29032;56.028;92.904;2023-03-26T10:23:36;5.07;;;3.40;;
42886;SDS011;29032;56.028;92.904;2023-03-26T10:40:40;3.97;;;3.20;;
42886;SDS011;29032;56.028;92.904;2023-03-26T10:46:02;5.17;;;3.20;;
42886;SDS011;29032;56.028;92.904;2023-03-26T10:51:48;10.73;;;3.53;;
42886;SDS011;29032;56.028;92.904;2023-03-26T10:57:22;5.83;;;3.60;;
42886;SDS011;29032;56.028;92.904;2023-03-26T11:02:30;4.43;;;3.00;;
42886;SDS011;29032;56.028;92.904;2023-03-26T11:08:01;6.63;;;3.27;;
42886;SDS011;29032;56.028;92.904;2023-03-26T11:13:12;5.53;;;3.17;;
42886;SDS011;29032;56.028;92.904;2023-03-26T11:18:20;5.03;;;3.70;;
42886;SDS011;29032;56.028;92.904;2023-03-26T11:23:35;5.87;;;3.47;;
42886;SDS011;29032;56.028;92.904;2023-03-26T11:29:09;4.55;;;3.50;;
42886;SDS011;29032;56.028;92.904;2023-03-26T11:34:44;5.87;;;3.40;;
42886;SDS011;29032;56.028;92.904;2023-03-26T11:39:56;6.03;;;3.40;;
42886;SDS011;29032;56.028;92.904;2023-03-26T11:45:01;5.90;;;3.43;;
42886;SDS011;29032;56.028;92.904;2023-03-26T11:50:25;7.67;;;3.50;;
42886;SDS011;29032;56.028;92.904;2023-03-26T11:55:59;6.83;;;4.07;;
42886;SDS011;29032;56.028;92.904;2023-03-26T12:01:24;6.67;;;4.30;;
42886;SDS011;29032;56.028;92.904;2023-03-26T12:06:28;7.53;;;4.20;;
42886;SDS011;29032;56.028;92.904;2023-03-26T12:11:32;6.03;;;4.10;;
42886;SDS011;29032;56.028;92.904;2023-03-26T12:16:34;8.30;;;4.20;;
42886;SDS011;29032;56.028;92.904;2023-03-26T12:21:42;9.23;;;5.30;;
42886;SDS011;29032;56.028;92.904;2023-03-26T12:26:46;9.23;;;5.17;;
42886;SDS011;29032;56.028;92.904;2023-03-26T12:32:02;8.43;;;5.07;;
42886;SDS011;29032;56.028;92.904;2023-03-26T12:37:28;5.40;;;4.30;;
42886;SDS011;29032;56.028;92.904;2023-03-26T12:42:55;11.90;;;5.30;;
42886;SDS011;29032;56.028;92.904;2023-03-26T12:48:18;7.50;;;4.90;;
42886;SDS011;29032;56.028;92.904;2023-03-26T12:53:41;8.83;;;4.40;;
42886;SDS011;29032;56.028;92.904;2023-03-26T12:59:07;8.23;;;4.97;;
42886;SDS011;29032;56.028;92.904;2023-03-26T13:04:44;7.63;;;4.70;;
42886;SDS011;29032;56.028;92.904;2023-03-26T13:10:00;7.03;;;4.60;;
42886;SDS011;29032;56.028;92.904;2023-03-26T13:15:31;11.93;;;6.20;;
42886;SDS011;29032;56.028;92.904;2023-03-26T13:20:43;7.70;;;3.77;;
42886;SDS011;29032;56.028;92.904;2023-03-26T13:25:51;5.03;;;3.77;;
42886;SDS011;29032;56.028;92.904;2023-03-26T13:36:45;7.77;;;4.17;;
42886;SDS011;29032;56.028;92.904;2023-03-26T13:42:22;7.83;;;4.07;;
42886;SDS011;29032;56.028;92.904;2023-03-26T13:47:59;3.97;;;3.40;;
42886;SDS011;29032;56.028;92.904;2023-03-26T13:53:26;4.45;;;3.75;;
42886;SDS011;29032;56.028;92.904;2023-03-26T13:58:33;4.23;;;3.80;;
42886;SDS011;29032;56.028;92.904;2023-03-26T14:03:45;6.47;;;3.63;;
42886;SDS011;29032;56.028;92.904;2023-03-26T14:09:14;5.20;;;3.60;;
42886;SDS011;29032;56.028;92.904;2023-03-26T14:14:22;5.13;;;4.17;;
42886;SDS011;29032;56.028;92.904;2023-03-26T14:25:31;4.57;;;3.70;;
42886;SDS011;29032;56.028;92.904;2023-03-26T14:30:48;5.85;;;3.83;;
42886;SDS011;29032;56.028;92.904;2023-03-26T14:36:24;9.43;;;4.50;;
42886;SDS011;29032;56.028;92.904;2023-03-26T14:42:05;5.83;;;3.40;;
42886;SDS011;29032;56.028;92.904;2023-03-26T14:47:14;7.60;;;3.97;;
42886;SDS011;29032;56.028;92.904;2023-03-26T14:52:40;6.83;;;3.60;;
42886;SDS011;29032;56.028;92.904;2023-03-26T14:58:25;3.93;;;3.53;;
42886;SDS011;29032;56.028;92.904;2023-03-26T15:10:08;7.93;;;4.37;;
42886;SDS011;29032;56.028;92.904;2023-03-26T15:15:48;4.37;;;3.63;;
42886;SDS011;29032;56.028;92.904;2023-03-26T15:21:39;5.73;;;3.53;;
42886;SDS011;29032;56.028;92.904;2023-03-26T15:27:23;8.07;;;4.10;;
42886;SDS011;29032;56.028;92.904;2023-03-26T15:44:43;7.93;;;3.77;;
42886;SDS011;29032;56.028;92.904;2023-03-26T15:50:15;4.90;;;3.77;;
42886;SDS011;29032;56.028;92.904;2023-03-26T15:55:33;6.47;;;3.73;;
42886;SDS011;29032;56.028;92.904;2023-03-26T16:01:06;5.10;;;3.80;;
42886;SDS011;29032;56.028;92.904;2023-03-26T16:06:19;8.37;;;3.47;;
42886;SDS011;29032;56.028;92.904;2023-03-26T16:11:53;6.15;;;3.95;;
42886;SDS011;29032;56.028;92.904;2023-03-26T16:17:01;4.83;;;3.40;;
42886;SDS011;29032;56.028;92.904;2023-03-26T16:22:05;6.77;;;3.10;;
42886;SDS011;29032;56.028;92.904;2023-03-26T16:33:16;3.60;;;2.70;;
42886;SDS011;29032;56.028;92.904;2023-03-26T16:38:46;5.90;;;3.13;;
42886;SDS011;29032;56.028;92.904;2023-03-26T16:44:12;6.87;;;3.37;;
42886;SDS011;29032;56.028;92.904;2023-03-26T16:49:28;3.77;;;3.10;;
42886;SDS011;29032;56.028;92.904;2023-03-26T16:54:42;5.10;;;3.20;;
42886;SDS011;29032;56.028;92.904;2023-03-26T17:00:28;7.00;;;4.47;;
42886;SDS011;29032;56.028;92.904;2023-03-26T17:11:47;7.88;;;4.45;;
42886;SDS011;29032;56.028;92.904;2023-03-26T17:17:05;4.80;;;3.60;;
42886;SDS011;29032;56.028;92.904;2023-03-26T17:22:41;8.23;;;4.00;;
42886;SDS011;29032;56.028;92.904;2023-03-26T17:28:13;7.83;;;3.47;;
42886;SDS011;29032;56.028;92.904;2023-03-26T17:33:27;7.37;;;3.20;;
42886;SDS011;29032;56.028;92.904;2023-03-26T17:38:57;5.27;;;2.93;;
42886;SDS011;29032;56.028;92.904;2023-03-26T17:44:04;5.17;;;3.30;;
42886;SDS011;29032;56.028;92.904;2023-03-26T17:49:48;5.73;;;2.83;;
42886;SDS011;29032;56.028;92.904;2023-03-26T17:55:15;6.20;;;2.83;;
42886;SDS011;29032;56.028;92.904;2023-03-26T18:00:21;6.10;;;2.80;;
42886;SDS011;29032;56.028;92.904;2023-03-26T18:05:26;3.83;;;2.80;;
42886;SDS011;29032;56.028;92.904;2023-03-26T18:11:13;3.67;;;2.60;;
42886;SDS011;29032;56.028;92.904;2023-03-26T18:17:00;7.15;;;3.50;;
42886;SDS011;29032;56.028;92.904;2023-03-26T18:22:03;3.47;;;2.90;;
42886;SDS011;29032;56.028;92.904;2023-03-26T18:27:08;6.73;;;3.53;;
42886;SDS011;29032;56.028;92.904;2023-03-26T18:32:18;4.17;;;3.53;;
42886;SDS011;29032;56.028;92.904;2023-03-26T18:37:40;4.57;;;3.22;;
42886;SDS011;29032;56.028;92.904;2023-03-26T18:42:46;4.57;;;3.13;;
42886;SDS011;29032;56.028;92.904;2023-03-26T18:48:09;6.43;;;3.27;;
42886;SDS011;29032;56.028;92.904;2023-03-26T18:53:15;6.00;;;3.83;;
42886;SDS011;29032;56.028;92.904;2023-03-26T18:58:23;5.60;;;3.40;;
42886;SDS011;29032;56.028;92.904;2023-03-26T19:03:27;3.97;;;3.20;;
42886;SDS011;29032;56.028;92.904;2023-03-26T19:08:52;5.50;;;3.43;;
42886;SDS011;29032;56.028;92.904;2023-03-26T19:13:59;4.37;;;3.07;;
42886;SDS011;29032;56.028;92.904;2023-03-26T19:19:08;6.30;;;3.40;;
42886;SDS011;29032;56.028;92.904;2023-03-26T19:24:14;5.00;;;3.00;;
42886;SDS011;29032;56.028;92.904;2023-03-26T19:29:38;3.83;;;2.90;;
42886;SDS011;29032;56.028;92.904;2023-03-26T19:35:03;4.77;;;3.23;;
42886;SDS011;29032;56.028;92.904;2023-03-26T19:40:19;5.23;;;3.13;;
42886;SDS011;29032;56.028;92.904;2023-03-26T19:45:43;3.87;;;3.10;;
42886;SDS011;29032;56.028;92.904;2023-03-26T19:50:52;4.50;;;3.00;;
42886;SDS011;29032;56.028;92.904;2023-03-26T19:56:19;5.73;;;3.60;;
42886;SDS011;29032;56.028;92.904;2023-03-26T20:01:23;5.57;;;3.20;;
42886;SDS011;29032;56.028;92.904;2023-03-26T20:06:27;5.63;;;3.27;;
42886;SDS011;29032;56.028;92.904;2023-03-26T20:11:48;8.80;;;3.57;;
42886;SDS011;29032;56.028;92.904;2023-03-26T20:16:52;4.63;;;2.83;;
42886;SDS011;29032;56.028;92.904;2023-03-26T20:21:55;5.97;;;3.30;;
42886;SDS011;29032;56.028;92.904;2023-03-26T20:26:57;4.27;;;2.33;;
42886;SDS011;29032;56.028;92.904;2023-03-26T20:32:02;3.60;;;2.60;;
42886;SDS011;29032;56.028;92.904;2023-03-26T20:37:23;5.33;;;2.73;;
42886;SDS011;29032;56.028;92.904;2023-03-26T20:42:25;3.63;;;2.33;;
42886;SDS011;29032;56.028;92.904;2023-03-26T20:47:28;4.13;;;2.87;;
42886;SDS011;29032;56.028;92.904;2023-03-26T20:52:31;5.37;;;3.33;;
42886;SDS011;29032;56.028;92.904;2023-03-26T20:57:52;4.63;;;2.73;;
42886;SDS011;29032;56.028;92.904;2023-03-26T21:02:55;4.10;;;2.80;;
42886;SDS011;29032;56.028;92.904;2023-03-26T21:07:58;6.20;;;3.00;;
42886;SDS011;29032;56.028;92.904;2023-03-26T21:13:23;6.73;;;3.40;;
42886;SDS011;29032;56.028;92.904;2023-03-26T21:18:36;4.23;;;3.10;;
42886;SDS011;29032;56.028;92.904;2023-03-26T21:23:59;6.17;;;3.23;;
42886;SDS011;29032;56.028;92.904;2023-03-26T21:29:07;5.70;;;3.17;;
42886;SDS011;29032;56.028;92.904;2023-03-26T21:34:11;7.27;;;3.47;;
42886;SDS011;29032;56.028;92.904;2023-03-26T21:39:14;6.33;;;3.60;;
42886;SDS011;29032;56.028;92.904;2023-03-26T21:44:16;4.10;;;3.07;;
42886;SDS011;29032;56.028;92.904;2023-03-26T21:49:21;3.50;;;2.93;;
42886;SDS011;29032;56.028;92.904;2023-03-26T21:54:24;5.20;;;3.50;;
42886;SDS011;29032;56.028;92.904;2023-03-26T21:59:29;3.60;;;2.90;;
42886;SDS011;29032;56.028;92.904;2023-03-26T22:04:43;3.53;;;3.17;;
42886;SDS011;29032;56.028;92.904;2023-03-26T22:09:49;5.43;;;3.37;;
42886;SDS011;29032;56.028;92.904;2023-03-26T22:14:52;4.90;;;3.20;;
42886;SDS011;29032;56.028;92.904;2023-03-26T22:19:55;5.10;;;3.30;;
42886;SDS011;29032;56.028;92.904;2023-03-26T22:24:58;4.60;;;2.93;;
42886;SDS011;29032;56.028;92.904;2023-03-26T22:30:19;3.80;;;3.00;;
42886;SDS011;29032;56.028;92.904;2023-03-26T22:35:23;5.97;;;3.23;;
42886;SDS011;29032;56.028;92.904;2023-03-26T22:40:26;4.57;;;3.17;;
42886;SDS011;29032;56.028;92.904;2023-03-26T22:45:28;5.77;;;3.13;;
42886;SDS011;29032;56.028;92.904;2023-03-26T22:50:57;7.30;;;3.33;;
42886;SDS011;29032;56.028;92.904;2023-03-26T22:56:20;3.77;;;2.90;;
42886;SDS011;29032;56.028;92.904;2023-03-26T23:01:23;4.07;;;3.10;;
42886;SDS011;29032;56.028;92.904;2023-03-26T23:06:45;3.30;;;3.00;;
42886;SDS011;29032;56.028;92.904;2023-03-26T23:11:47;5.23;;;3.40;;
42886;SDS011;29032;56.028;92.904;2023-03-26T23:16:49;7.37;;;3.17;;
42886;SDS011;29032;56.028;92.904;2023-03-26T23:22:12;7.40;;;2.80;;
42886;SDS011;29032;56.028;92.904;2023-03-26T23:27:14;5.10;;;3.30;;
42886;SDS011;29032;56.028;92.904;2023-03-26T23:32:17;7.03;;;4.27;;
42886;SDS011;29032;56.028;92.904;2023-03-26T23:37:20;5.57;;;3.27;;
42886;SDS011;29032;56.028;92.904;2023-03-26T23:42:23;6.57;;;3.87;;
42886;SDS011;29032;56.028;92.904;2023-03-26T23:47:44;9.70;;;3.80;;
42886;SDS011;29032;56.028;92.904;2023-03-26T23:53:08;6.60;;;3.10;;
42886;SDS011;29032;56.028;92.904;2023-03-26T23:58:29;7.03;;;3.90;;
